createdAt,value
2018-11-02T00:00:13.857Z,100475.16
2018-11-02T00:02:38.933Z,100482.66
2018-11-02T00:05:04.020Z,100485.42
2018-11-02T00:07:29.105Z,100479.81
2018-11-02T00:09:54.228Z,100487.55
2018-11-02T00:12:19.327Z,100485.45
2018-11-02T00:14:44.373Z,100488.08
2018-11-02T00:17:09.461Z,100492.39
2018-11-02T00:19:35.341Z,100495.84
2018-11-02T00:22:01.895Z,100486.89
2018-11-02T00:24:27.284Z,100489.70
2018-11-02T00:26:52.331Z,100498.86
2018-11-02T00:29:17.427Z,100498.65
2018-11-02T00:31:42.586Z,100496.62
2018-11-02T00:34:07.620Z,100476.70
2018-11-02T00:36:32.733Z,100482.20
2018-11-02T00:38:57.823Z,100483.03
2018-11-02T00:44:16.641Z,100477.39
2018-11-02T00:46:41.728Z,100467.10
2018-11-02T00:49:07.263Z,100469.17
2018-11-02T00:54:09.009Z,100475.69
2018-11-02T00:56:34.176Z,100478.47
2018-11-02T00:59:18.491Z,100474.42
2018-11-02T01:01:43.572Z,100471.50
2018-11-02T01:04:08.698Z,100472.53
2018-11-02T01:06:33.805Z,100483.27
2018-11-02T01:11:36.013Z,100487.25
2018-11-02T01:14:01.145Z,100489.16
2018-11-02T01:16:26.317Z,100493.86
2018-11-02T01:18:51.402Z,100490.20
2018-11-02T01:21:16.504Z,100483.70
2018-11-02T01:23:41.575Z,100478.95
2018-11-02T01:26:07.120Z,100475.48
2018-11-02T01:28:32.306Z,100468.63
2018-11-02T01:30:57.389Z,100478.42
2018-11-02T01:33:37.245Z,100497.47
2018-11-02T01:36:02.335Z,100504.43
2018-11-02T01:38:27.435Z,100501.50
2018-11-02T01:40:52.548Z,100507.33
2018-11-02T01:43:17.653Z,100514.55
2018-11-02T01:45:42.818Z,100522.46
2018-11-02T01:50:47.355Z,100517.80
2018-11-02T01:53:12.469Z,100522.46
2018-11-02T01:55:37.912Z,100522.92
2018-11-02T01:58:03.023Z,100520.90
2018-11-02T02:00:28.139Z,100533.30
2018-11-02T02:02:53.217Z,100534.68
2018-11-02T02:05:18.301Z,100521.50
2018-11-02T02:07:43.419Z,100518.27
2018-11-02T02:10:08.494Z,100529.44
2018-11-02T02:12:33.573Z,100537.50
2018-11-02T02:15:17.674Z,100541.56
2018-11-02T02:18:01.752Z,100537.80
2018-11-02T02:20:26.854Z,100533.48
2018-11-02T02:22:51.973Z,100530.02
2018-11-02T02:25:17.034Z,100525.30
2018-11-02T02:27:42.133Z,100526.70
2018-11-02T02:33:04.936Z,100535.30
2018-11-02T02:35:30.023Z,100548.22
2018-11-02T02:37:55.161Z,100543.69
2018-11-02T02:40:39.247Z,100538.61
2018-11-02T02:43:04.795Z,100548.90
2018-11-02T02:45:30.078Z,100539.72
2018-11-02T02:47:55.142Z,100545.55
2018-11-02T02:50:20.244Z,100548.23
2018-11-02T02:52:45.477Z,100538.55
2018-11-02T02:55:10.594Z,100541.41
2018-11-02T02:57:36.306Z,100546.57
2018-11-02T03:00:01.541Z,100543.38
2018-11-02T03:02:26.628Z,100556.00
2018-11-02T03:04:51.744Z,100544.56
2018-11-02T03:07:16.863Z,100545.83
2018-11-02T03:10:00.926Z,100550.73
2018-11-02T03:12:44.999Z,100542.97
2018-11-02T03:15:10.232Z,100537.09
2018-11-02T03:17:35.528Z,100543.97
2018-11-02T03:20:00.656Z,100547.86
2018-11-02T03:25:02.478Z,100562.42
2018-11-02T03:27:27.600Z,100552.73
2018-11-02T03:29:52.749Z,100551.86
2018-11-02T03:32:17.874Z,100546.76
2018-11-02T03:34:42.965Z,100561.30
2018-11-02T03:37:08.115Z,100553.24
2018-11-02T03:39:33.243Z,100561.98
2018-11-02T03:41:58.368Z,100568.89
2018-11-02T03:44:23.444Z,100581.44
2018-11-02T03:46:48.530Z,100586.40
2018-11-02T03:49:13.666Z,100596.14
2018-11-02T03:51:38.723Z,100598.26
2018-11-02T03:54:03.944Z,100603.63
2018-11-02T03:56:31.318Z,100618.96
2018-11-02T03:58:54.151Z,100617.48
2018-11-02T04:01:19.276Z,100617.32
2018-11-02T04:03:44.339Z,100614.92
2018-11-02T04:06:09.457Z,100627.47
2018-11-02T04:08:34.569Z,100633.43
2018-11-02T04:11:18.629Z,100635.91
2018-11-02T04:13:43.699Z,100644.25
2018-11-02T04:16:08.823Z,100652.34
2018-11-02T04:21:10.048Z,100645.99
2018-11-02T04:23:35.176Z,100643.07
2018-11-02T04:26:00.257Z,100651.75
2018-11-02T04:28:25.373Z,100652.77
2018-11-02T04:30:50.521Z,100667.41
2018-11-02T04:33:15.539Z,100663.72
2018-11-02T04:35:40.723Z,100659.41
2018-11-02T04:38:05.868Z,100664.57
2018-11-02T04:40:30.963Z,100661.59
2018-11-02T04:42:56.068Z,100670.30
2018-11-02T04:45:39.886Z,100672.28
2018-11-02T04:48:05.022Z,100673.82
2018-11-02T04:50:30.126Z,100685.94
2018-11-02T04:52:55.201Z,100681.05
2018-11-02T04:55:20.312Z,100692.03
2018-11-02T04:58:04.332Z,100690.52
2018-11-02T05:00:29.504Z,100697.27
2018-11-02T05:02:54.653Z,100704.61
2018-11-02T05:05:19.704Z,100701.09
2018-11-02T05:07:44.805Z,100707.44
2018-11-02T05:10:10.463Z,100711.63
2018-11-02T05:12:35.542Z,100714.06
2018-11-02T05:15:00.636Z,100716.64
2018-11-02T05:17:25.755Z,100720.41
2018-11-02T05:19:50.809Z,100728.14
2018-11-02T05:24:54.915Z,100750.97
2018-11-02T05:27:19.992Z,100756.33
2018-11-02T05:29:45.476Z,100756.33
2018-11-02T05:32:10.580Z,100755.47
2018-11-02T05:34:35.720Z,100762.82
2018-11-02T05:37:00.817Z,100762.87
2018-11-02T05:39:25.951Z,100769.57
2018-11-02T05:42:09.977Z,100773.37
2018-11-02T05:44:35.034Z,100775.41
2018-11-02T05:47:00.304Z,100774.11
2018-11-02T05:52:20.906Z,100782.64
2018-11-02T05:54:45.998Z,100783.06
2018-11-02T05:57:11.301Z,100786.31
2018-11-02T05:59:36.497Z,100788.84
2018-11-02T06:02:01.651Z,100794.03
2018-11-02T06:04:45.680Z,100797.81
2018-11-02T06:07:10.737Z,100797.81
2018-11-02T06:09:35.800Z,100807.45
2018-11-02T06:12:00.887Z,100805.95
2018-11-02T06:14:26.023Z,100803.69
2018-11-02T06:16:51.391Z,100815.88
2018-11-02T06:21:55.792Z,100818.00
2018-11-02T06:24:20.976Z,100822.67
2018-11-02T06:27:04.959Z,100828.66
2018-11-02T06:29:30.057Z,100835.34
2018-11-02T06:31:55.180Z,100850.23
2018-11-02T06:34:20.271Z,100856.16
2018-11-02T06:36:45.343Z,100868.22
2018-11-02T06:39:29.447Z,100869.78
2018-11-02T06:41:54.547Z,100873.09
2018-11-02T06:44:19.675Z,100886.35
2018-11-02T06:46:44.805Z,100888.09
2018-11-02T06:49:09.933Z,100888.91
2018-11-02T06:51:35.038Z,100891.82
2018-11-02T06:56:39.867Z,100897.09
2018-11-02T06:59:04.966Z,100898.66
2018-11-02T07:04:14.346Z,100897.98
2018-11-02T07:06:39.415Z,100896.83
2018-11-02T07:09:05.012Z,100888.98
2018-11-02T07:11:30.100Z,100890.81
2018-11-02T07:13:55.347Z,100905.91
2018-11-02T07:16:20.446Z,100911.35
2018-11-02T07:18:45.529Z,100903.12
2018-11-02T07:21:10.714Z,100905.81
2018-11-02T07:23:35.800Z,100887.87
2018-11-02T07:26:19.946Z,100901.74
2018-11-02T07:28:56.478Z,100889.33
2018-11-02T07:31:22.557Z,100889.74
2018-11-02T07:33:47.664Z,100900.00
2018-11-02T07:36:12.728Z,100895.92
2018-11-02T07:38:56.817Z,100892.11
2018-11-02T07:41:21.927Z,100892.74
2018-11-02T07:43:47.055Z,100893.52
2018-11-02T07:46:12.134Z,100901.55
2018-11-02T07:48:37.214Z,100893.19
2018-11-02T07:51:02.344Z,100898.77
2018-11-02T07:53:27.411Z,100901.89
2018-11-02T07:56:11.498Z,100909.70
2018-11-02T07:58:36.594Z,100922.08
2018-11-02T08:01:01.709Z,100924.47
2018-11-02T08:03:26.795Z,100928.88
2018-11-02T08:05:51.902Z,100930.50
2018-11-02T08:08:17.033Z,100930.38
2018-11-02T08:10:42.099Z,100938.87
2018-11-02T08:13:07.345Z,100942.09
2018-11-02T08:15:51.374Z,100947.32
2018-11-02T08:18:35.482Z,100946.27
2018-11-02T08:23:16.536Z,100949.77
2018-11-02T08:25:41.704Z,100961.17
2018-11-02T08:28:25.758Z,100965.59
2018-11-02T08:31:09.914Z,100970.65
2018-11-02T08:33:34.976Z,100974.64
2018-11-02T08:36:00.056Z,100980.70
2018-11-02T08:38:25.208Z,100994.18
2018-11-02T08:40:50.287Z,100987.85
2018-11-02T08:43:15.460Z,100987.86
2018-11-02T08:45:40.553Z,100987.06
2018-11-02T08:48:05.907Z,100996.98
2018-11-02T08:50:31.008Z,101000.56
2018-11-02T08:53:07.807Z,101009.08
2018-11-02T08:55:32.941Z,101006.22
2018-11-02T08:57:58.252Z,101014.12
2018-11-02T09:00:23.079Z,101024.41
2018-11-02T09:02:48.211Z,101021.91
2018-11-02T09:05:13.398Z,101029.45
2018-11-02T09:07:39.014Z,101037.45
2018-11-02T09:10:04.143Z,101044.59
2018-11-02T09:12:29.259Z,101040.53
2018-11-02T09:14:54.387Z,101048.73
2018-11-02T09:17:38.398Z,101049.45
2018-11-02T09:20:03.558Z,101055.73
2018-11-02T09:22:28.671Z,101058.66
2018-11-02T09:24:53.859Z,101069.45
2018-11-02T09:27:18.986Z,101073.98
2018-11-02T09:30:02.971Z,101074.16
2018-11-02T09:32:28.084Z,101084.55
2018-11-02T09:34:53.219Z,101072.02
2018-11-02T09:37:18.334Z,101082.33
2018-11-02T09:39:43.434Z,101084.31
2018-11-02T09:42:08.518Z,101105.66
2018-11-02T09:44:33.627Z,101105.20
2018-11-02T09:46:58.695Z,101117.19
2018-11-02T09:49:28.282Z,101119.66
2018-11-02T09:51:53.380Z,101139.99
2018-11-02T09:54:18.411Z,101145.42
2018-11-02T09:56:43.502Z,101153.08
2018-11-02T09:59:08.567Z,101147.25
2018-11-02T10:01:33.703Z,101158.99
2018-11-02T10:03:58.783Z,101166.98
2018-11-02T10:06:23.876Z,101165.34
2018-11-02T10:09:08.048Z,101168.38
2018-11-02T10:11:33.004Z,101169.50
2018-11-02T10:13:58.097Z,101178.63
2018-11-02T10:16:23.198Z,101192.50
2018-11-02T10:18:48.274Z,101191.19
2018-11-02T10:21:13.371Z,101187.41
2018-11-02T10:23:38.502Z,101189.77
2018-11-02T10:26:03.565Z,101194.45
2018-11-02T10:28:28.668Z,101197.09
2018-11-02T10:30:53.734Z,101204.23
2018-11-02T10:33:18.829Z,101201.04
2018-11-02T10:35:44.371Z,101204.96
2018-11-02T10:38:09.480Z,101203.93
2018-11-02T10:40:35.304Z,101211.03
2018-11-02T10:43:03.939Z,101210.94
2018-11-02T10:45:48.251Z,101214.34
2018-11-02T10:48:13.328Z,101222.55
2018-11-02T10:50:38.440Z,101219.45
2018-11-02T10:53:03.643Z,101233.02
2018-11-02T10:55:28.902Z,101227.11
2018-11-02T10:58:12.953Z,101237.77
2018-11-02T11:00:56.951Z,101235.72
2018-11-02T11:03:22.270Z,101240.73
2018-11-02T11:05:47.433Z,101252.90
2018-11-02T11:08:12.477Z,101240.49
2018-11-02T11:10:37.571Z,101254.55
2018-11-02T11:13:03.110Z,101256.60
2018-11-02T11:15:27.802Z,101258.71
2018-11-02T11:17:52.924Z,101263.94
2018-11-02T11:20:18.009Z,101268.50
2018-11-02T11:22:43.233Z,101265.23
2018-11-02T11:25:10.787Z,101272.03
2018-11-02T11:27:35.915Z,101269.60
2018-11-02T11:30:01.041Z,101275.63
2018-11-02T11:32:26.197Z,101263.69
2018-11-02T11:35:02.527Z,101262.05
2018-11-02T11:37:27.614Z,101264.72
2018-11-02T11:39:52.990Z,101262.21
2018-11-02T11:42:36.780Z,101268.10
2018-11-02T11:45:01.937Z,101267.27
2018-11-02T11:47:27.053Z,101283.92
2018-11-02T11:49:52.149Z,101270.06
2018-11-02T11:52:17.247Z,101279.02
2018-11-02T11:54:42.462Z,101279.56
2018-11-02T11:57:08.038Z,101283.06
2018-11-02T11:59:33.150Z,101292.00
2018-11-02T12:01:58.230Z,101289.99
2018-11-02T12:04:23.360Z,101292.52
2018-11-02T12:06:48.425Z,101288.80
2018-11-02T12:09:13.516Z,101293.83
2018-11-02T12:11:38.618Z,101296.48
2018-11-02T12:14:03.729Z,101293.06
2018-11-02T12:16:28.923Z,101297.75
2018-11-02T12:19:12.960Z,101302.06
2018-11-02T12:21:38.151Z,101312.86
2018-11-02T12:24:03.195Z,101315.53
2018-11-02T12:26:28.275Z,101313.11
2018-11-02T12:28:53.463Z,101315.65
2018-11-02T12:31:18.479Z,101315.70
2018-11-02T12:33:43.704Z,101326.55
2018-11-02T12:36:08.829Z,101329.30
2018-11-02T12:38:33.976Z,101327.98
2018-11-02T12:40:59.125Z,101326.55
2018-11-02T12:43:24.325Z,101333.48
2018-11-02T12:45:49.429Z,101340.09
2018-11-02T12:48:14.588Z,101340.53
2018-11-02T12:50:39.713Z,101348.77
2018-11-02T12:53:04.820Z,101346.91
2018-11-02T12:55:29.941Z,101350.45
2018-11-02T12:57:55.043Z,101352.08
2018-11-02T13:00:39.099Z,101351.41
2018-11-02T13:03:04.242Z,101329.06
2018-11-02T13:05:29.341Z,101341.45
2018-11-02T13:07:54.456Z,101336.53
2018-11-02T13:10:20.729Z,101334.03
2018-11-02T13:12:45.847Z,101330.66
2018-11-02T13:15:13.112Z,101337.05
2018-11-02T13:17:38.476Z,101344.52
2018-11-02T13:20:06.222Z,101349.70
2018-11-02T13:22:31.286Z,101339.38
2018-11-02T13:24:56.406Z,101346.06
2018-11-02T13:27:21.532Z,101341.95
2018-11-02T13:29:46.688Z,101344.62
2018-11-02T13:32:11.771Z,101344.81
2018-11-02T13:34:55.856Z,101342.09
2018-11-02T13:37:21.333Z,101359.14
2018-11-02T13:40:05.462Z,101357.43
2018-11-02T13:42:30.546Z,101367.45
2018-11-02T13:44:55.694Z,101366.03
2018-11-02T13:47:20.809Z,101372.44
2018-11-02T13:50:04.631Z,101382.52
2018-11-02T13:52:29.707Z,101388.11
2018-11-02T13:54:54.802Z,101394.49
2018-11-02T13:57:22.326Z,101393.27
2018-11-02T13:59:47.467Z,101407.25
2018-11-02T14:02:12.569Z,101407.28
2018-11-02T14:04:37.771Z,101406.78
2018-11-02T14:07:02.883Z,101411.72
2018-11-02T14:09:47.000Z,101414.55
2018-11-02T14:12:12.088Z,101411.56
2018-11-02T14:14:37.199Z,101414.72
2018-11-02T14:17:02.352Z,101420.59
2018-11-02T14:19:27.417Z,101424.77
2018-11-02T14:21:52.553Z,101432.06
2018-11-02T14:24:17.637Z,101430.66
2018-11-02T14:26:42.727Z,101438.05
2018-11-02T14:29:07.839Z,101451.05
2018-11-02T14:31:33.000Z,101461.05
2018-11-02T14:33:58.110Z,101464.06
2018-11-02T14:36:23.194Z,101455.72
2018-11-02T14:38:48.366Z,101459.17
2018-11-02T14:41:13.552Z,101454.02
2018-11-02T14:43:38.622Z,101455.56
2018-11-02T14:46:03.768Z,101460.94
2018-11-02T14:48:28.856Z,101469.09
2018-11-02T14:50:53.971Z,101469.66
2018-11-02T14:53:19.120Z,101480.02
2018-11-02T14:56:02.893Z,101488.44
2018-11-02T14:58:28.038Z,101492.09
2018-11-02T15:00:53.218Z,101494.20
2018-11-02T15:03:30.146Z,101500.28
2018-11-02T15:05:55.301Z,101501.12
2018-11-02T15:11:16.018Z,101512.47
2018-11-02T15:13:41.031Z,101524.34
2018-11-02T15:16:06.245Z,101522.84
2018-11-02T15:18:43.500Z,101521.13
2018-11-02T15:21:30.209Z,101522.63
2018-11-02T15:23:55.436Z,101518.54
2018-11-02T15:26:20.592Z,101531.44
2018-11-02T15:28:45.681Z,101535.36
2018-11-02T15:31:10.743Z,101538.44
2018-11-02T15:33:35.913Z,101534.09
2018-11-02T15:36:01.022Z,101536.81
2018-11-02T15:38:26.211Z,101531.29
2018-11-02T15:40:51.343Z,101534.82
2018-11-02T15:43:16.444Z,101534.63
2018-11-02T15:46:00.516Z,101538.05
2018-11-02T15:48:25.626Z,101541.34
2018-11-02T15:50:50.782Z,101550.02
2018-11-02T15:53:15.916Z,101544.95
2018-11-02T15:55:40.961Z,101549.31
2018-11-02T15:58:06.212Z,101552.01
2018-11-02T16:00:31.359Z,101549.25
2018-11-02T16:02:56.512Z,101550.80
2018-11-02T16:05:21.623Z,101554.03
2018-11-02T16:07:46.733Z,101551.14
2018-11-02T16:10:12.601Z,101556.41
2018-11-02T16:12:37.748Z,101562.95
2018-11-02T16:15:02.915Z,101564.12
2018-11-02T16:17:28.056Z,101567.30
2018-11-02T16:19:53.174Z,101571.67
2018-11-02T16:22:18.271Z,101574.61
2018-11-02T16:24:43.400Z,101572.97
2018-11-02T16:27:08.557Z,101572.77
2018-11-02T16:29:33.658Z,101577.05
2018-11-02T16:31:58.776Z,101577.41
2018-11-02T16:34:24.056Z,101568.53
2018-11-02T16:36:49.041Z,101573.83
2018-11-02T16:39:14.168Z,101583.05
2018-11-02T16:41:39.726Z,101587.52
2018-11-02T16:44:04.991Z,101595.02
2018-11-02T16:46:30.036Z,101601.19
2018-11-02T16:48:55.205Z,101603.77
2018-11-02T16:51:20.297Z,101602.75
2018-11-02T16:53:45.424Z,101606.70
2018-11-02T16:56:10.573Z,101609.39
2018-11-02T16:58:35.859Z,101612.77
2018-11-02T17:01:00.969Z,101621.41
2018-11-02T17:03:26.183Z,101623.53
2018-11-02T17:05:51.377Z,101620.59
2018-11-02T17:08:16.383Z,101621.06
2018-11-02T17:10:41.516Z,101631.73
2018-11-02T17:13:07.113Z,101628.89
2018-11-02T17:15:32.300Z,101640.81
2018-11-02T17:17:57.416Z,101634.15
2018-11-02T17:20:22.515Z,101633.08
2018-11-02T17:22:47.959Z,101633.56
2018-11-02T17:25:15.228Z,101639.16
2018-11-02T17:27:40.589Z,101641.93
2018-11-02T17:30:06.405Z,101649.27
2018-11-02T17:32:31.571Z,101653.94
2018-11-02T17:35:15.687Z,101661.13
2018-11-02T17:40:17.271Z,101665.64
2018-11-02T17:42:42.834Z,101654.94
2018-11-02T17:45:08.740Z,101672.61
2018-11-02T17:47:33.924Z,101667.15
2018-11-02T17:49:59.017Z,101676.05
2018-11-02T17:52:24.817Z,101677.13
2018-11-02T17:54:49.949Z,101678.30
2018-11-02T17:59:54.374Z,101678.98
2018-11-02T18:02:19.535Z,101670.83
2018-11-02T18:04:44.662Z,101686.41
2018-11-02T18:07:09.796Z,101688.14
2018-11-02T18:09:34.929Z,101684.16
2018-11-02T18:12:00.086Z,101693.23
2018-11-02T18:14:25.230Z,101703.89
2018-11-02T18:16:50.309Z,101700.25
2018-11-02T18:19:15.445Z,101707.48
2018-11-02T18:21:40.746Z,101709.72
2018-11-02T18:24:24.960Z,101715.11
2018-11-02T18:26:50.105Z,101718.81
2018-11-02T18:29:15.284Z,101730.24
2018-11-02T18:31:40.367Z,101737.99
2018-11-02T18:36:42.572Z,101740.45
2018-11-02T18:39:13.040Z,101745.02
2018-11-02T18:41:38.202Z,101744.60
2018-11-02T18:44:03.380Z,101750.14
2018-11-02T18:46:28.531Z,101752.96
2018-11-02T18:51:30.392Z,101754.81
2018-11-02T18:53:55.492Z,101754.95
2018-11-02T18:56:20.611Z,101761.08
2018-11-02T18:58:45.721Z,101762.03
2018-11-02T19:01:10.839Z,101755.45
2018-11-02T19:03:36.028Z,101761.98
2018-11-02T19:06:01.135Z,101774.08
2018-11-02T19:08:26.332Z,101783.03
2018-11-02T19:10:51.457Z,101790.39
2018-11-02T19:13:16.631Z,101789.89
2018-11-02T19:15:41.875Z,101787.52
2018-11-02T19:18:06.941Z,101788.08
2018-11-02T19:20:32.249Z,101795.38
2018-11-02T19:22:57.214Z,101801.31
2018-11-02T19:25:22.339Z,101810.18
2018-11-02T19:27:47.684Z,101807.27
2018-11-02T19:30:13.738Z,101809.98
2018-11-02T19:32:57.916Z,101817.50
2018-11-02T19:35:23.213Z,101815.02
2018-11-02T19:37:48.257Z,101808.67
2018-11-02T19:40:32.329Z,101811.90
2018-11-02T19:42:57.489Z,101823.14
2018-11-02T19:45:23.003Z,101821.45
2018-11-02T19:48:06.835Z,101824.08
2018-11-02T19:50:32.084Z,101830.19
2018-11-02T19:52:57.137Z,101828.98
2018-11-02T19:55:22.389Z,101835.00
2018-11-02T19:58:06.379Z,101837.19
2018-11-02T20:00:31.529Z,101846.53
2018-11-02T20:03:15.567Z,101841.02
2018-11-02T20:05:40.714Z,101844.99
2018-11-02T20:08:06.133Z,101847.33
2018-11-02T20:13:09.861Z,101847.74
2018-11-02T20:15:34.997Z,101852.72
2018-11-02T20:18:00.207Z,101855.89
2018-11-02T20:20:25.397Z,101837.69
2018-11-02T20:22:50.585Z,101866.18
2018-11-02T20:25:17.196Z,101866.40
2018-11-02T20:27:42.363Z,101873.31
2018-11-02T20:32:56.448Z,101887.99
2018-11-02T20:35:21.639Z,101881.84
2018-11-02T20:37:46.757Z,101884.02
2018-11-02T20:40:31.662Z,101887.98
2018-11-02T20:42:56.801Z,101890.94
2018-11-02T20:45:21.943Z,101899.68
2018-11-02T20:47:49.576Z,101913.16
2018-11-02T20:50:14.698Z,101906.00
2018-11-02T20:52:39.954Z,101915.52
2018-11-02T20:55:05.094Z,101922.06
2018-11-02T20:57:31.164Z,101922.04
2018-11-02T20:59:56.211Z,101923.45
2018-11-02T21:02:21.380Z,101924.63
2018-11-02T21:04:46.601Z,101924.03
2018-11-02T21:07:11.808Z,101931.36
2018-11-02T21:09:37.195Z,101939.69
2018-11-02T21:12:02.078Z,101932.77
2018-11-02T21:14:27.455Z,101932.58
2018-11-02T21:16:52.421Z,101939.70
2018-11-02T21:19:17.978Z,101942.66
2018-11-02T21:21:43.186Z,101938.49
2018-11-02T21:24:08.574Z,101947.44
2018-11-02T21:26:33.698Z,101944.45
2018-11-02T21:28:59.021Z,101945.04
2018-11-02T21:31:24.038Z,101941.28
2018-11-02T21:33:49.274Z,101940.49
2018-11-02T21:36:14.395Z,101942.08
2018-11-02T21:41:16.926Z,101949.79
2018-11-02T21:43:42.117Z,101957.93
2018-11-02T21:46:07.396Z,101962.64
2018-11-02T21:48:32.549Z,101967.12
2018-11-02T21:50:57.646Z,101968.20
2018-11-02T21:53:22.927Z,101965.84
2018-11-02T21:55:48.070Z,101969.42
2018-11-02T21:58:13.235Z,101968.62
2018-11-02T22:00:38.336Z,101969.58
2018-11-02T22:03:03.428Z,101974.73
2018-11-02T22:05:28.993Z,101971.95
2018-11-02T22:07:54.051Z,101962.66
2018-11-02T22:10:19.344Z,101967.01
2018-11-02T22:12:44.528Z,101959.08
2018-11-02T22:17:47.273Z,101963.62
2018-11-02T22:22:49.648Z,101963.26
2018-11-02T22:27:51.509Z,101962.65
2018-11-02T22:30:17.643Z,101955.94
2018-11-02T22:32:42.772Z,101960.17
2018-11-02T22:35:07.939Z,101959.26
2018-11-02T22:37:33.102Z,101960.55
2018-11-02T22:39:58.302Z,101960.64
2018-11-02T22:42:23.465Z,101952.24
2018-11-02T22:44:48.598Z,101960.05
2018-11-02T22:47:13.823Z,101954.72
2018-11-02T22:49:38.945Z,101954.12
2018-11-02T22:52:04.097Z,101945.39
2018-11-02T22:54:29.250Z,101960.54
2018-11-02T22:56:54.401Z,101960.43
2018-11-02T22:59:19.519Z,101960.73
2018-11-02T23:02:03.639Z,101962.88
2018-11-02T23:04:28.845Z,101962.48
2018-11-02T23:06:53.991Z,101964.70
2018-11-02T23:09:19.163Z,101960.09
2018-11-02T23:11:44.296Z,101966.61
2018-11-02T23:14:09.489Z,101973.27
2018-11-02T23:16:34.596Z,101969.17
2018-11-02T23:18:59.736Z,101974.86
2018-11-02T23:21:24.938Z,101976.89
2018-11-02T23:23:50.039Z,101972.90
2018-11-02T23:26:15.333Z,101973.45
2018-11-02T23:28:40.607Z,101968.98
2018-11-02T23:31:05.727Z,101972.73
2018-11-02T23:33:49.933Z,101979.84
2018-11-02T23:36:15.084Z,101973.30
2018-11-02T23:38:40.211Z,101976.30
2018-11-02T23:41:05.375Z,101972.84
2018-11-02T23:43:30.546Z,101973.91
2018-11-02T23:45:55.671Z,101974.38
2018-11-02T23:48:21.054Z,101971.85
2018-11-02T23:50:47.802Z,101968.77
2018-11-02T23:53:12.915Z,101967.59
2018-11-02T23:55:38.017Z,101974.70
2018-11-02T23:58:03.266Z,101970.16
